createdAt,value
2022-12-05T00:08:25.326Z,6.33
2022-12-05T00:10:59.880Z,6.32
2022-12-05T00:36:44.390Z,6.33
2022-12-05T01:26:35.674Z,6.13
2022-12-05T01:29:46.076Z,6.14
2022-12-05T02:02:56.198Z,5.67
2022-12-05T02:05:56.628Z,5.60
2022-12-05T02:11:10.143Z,5.52
2022-12-05T02:57:42.669Z,5.60
2022-12-05T03:10:54.895Z,5.55
2022-12-05T03:13:32.007Z,5.55
2022-12-05T03:22:03.335Z,5.62
2022-12-05T03:24:57.399Z,5.63
2022-12-05T03:28:23.815Z,5.65
2022-12-05T03:57:01.382Z,5.50
2022-12-05T04:00:22.987Z,5.51
2022-12-05T04:03:40.405Z,5.53
2022-12-05T04:10:25.286Z,5.57
2022-12-05T04:17:53.757Z,5.57
2022-12-05T05:08:29.209Z,5.65
2022-12-05T05:11:16.379Z,5.59
2022-12-05T05:14:27.186Z,5.59
2022-12-05T05:17:02.337Z,5.61
2022-12-05T05:19:31.375Z,5.58
2022-12-05T05:22:10.296Z,5.61
2022-12-05T05:24:43.790Z,5.63
2022-12-05T05:27:14.038Z,5.63
2022-12-05T05:30:04.103Z,5.66
2022-12-05T05:32:35.026Z,5.68
2022-12-05T05:35:21.214Z,5.70
2022-12-05T05:41:26.880Z,5.65
2022-12-05T05:44:39.995Z,5.66
2022-12-05T05:47:16.457Z,5.58
2022-12-05T05:57:23.536Z,5.40
2022-12-05T06:08:00.858Z,5.59
2022-12-05T06:10:37.396Z,5.60
2022-12-05T06:13:06.207Z,5.65
2022-12-05T06:15:35.035Z,5.67
2022-12-05T06:18:04.788Z,5.74
2022-12-05T06:20:33.481Z,5.76
2022-12-05T06:23:04.329Z,5.77
2022-12-05T06:25:34.919Z,5.75
2022-12-05T06:28:10.390Z,5.74
2022-12-05T06:30:44.315Z,5.75
2022-12-05T06:33:12.825Z,5.76
2022-12-05T06:35:41.996Z,5.74
2022-12-05T06:38:11.049Z,5.72
2022-12-05T06:40:41.538Z,5.72
2022-12-05T06:43:12.609Z,5.73
2022-12-05T06:45:41.601Z,5.80
2022-12-05T06:48:10.319Z,5.88
2022-12-05T06:50:38.887Z,5.91
2022-12-05T06:53:08.382Z,5.89
2022-12-05T06:55:37.920Z,5.92
2022-12-05T06:58:06.617Z,5.97
2022-12-05T07:00:54.275Z,5.98
2022-12-05T07:03:23.218Z,5.99
2022-12-05T07:05:52.550Z,6.01
2022-12-05T07:08:21.319Z,5.99
2022-12-05T07:10:53.869Z,5.92
2022-12-05T07:13:24.727Z,5.91
2022-12-05T07:15:59.521Z,5.90
2022-12-05T07:18:29.356Z,5.86
2022-12-05T07:21:14.432Z,5.87
2022-12-05T07:23:45.052Z,5.82
2022-12-05T07:26:15.949Z,5.73
2022-12-05T07:28:46.868Z,5.68
2022-12-05T07:31:20.426Z,5.66
2022-12-05T07:33:49.915Z,5.68
2022-12-05T07:36:21.040Z,5.71
2022-12-05T07:38:51.143Z,5.71
2022-12-05T07:41:23.929Z,5.67
2022-12-05T07:43:53.084Z,5.63
2022-12-05T07:46:23.591Z,5.65
2022-12-05T07:48:53.054Z,5.72
2022-12-05T07:51:22.351Z,5.77
2022-12-05T07:53:51.055Z,5.81
2022-12-05T07:56:20.728Z,5.82
2022-12-05T07:58:51.772Z,5.79
2022-12-05T08:01:24.460Z,5.77
2022-12-05T08:03:55.307Z,5.74
2022-12-05T08:06:26.977Z,5.73
2022-12-05T08:08:56.715Z,5.78
2022-12-05T08:11:30.380Z,5.82
2022-12-05T08:13:59.877Z,5.79
2022-12-05T08:16:32.621Z,5.79
2022-12-05T08:19:06.645Z,5.76
2022-12-05T08:21:37.418Z,5.75
2022-12-05T08:24:07.184Z,5.75
2022-12-05T08:26:37.932Z,5.76
2022-12-05T08:29:09.100Z,5.78
2022-12-05T08:31:43.980Z,5.85
2022-12-05T08:34:15.641Z,5.87
2022-12-05T08:36:44.883Z,5.89
2022-12-05T08:39:16.484Z,5.91
2022-12-05T08:41:45.989Z,5.90
2022-12-05T08:44:17.298Z,5.86
2022-12-05T08:46:49.953Z,5.88
2022-12-05T08:49:20.280Z,5.86
2022-12-05T08:51:48.932Z,5.91
2022-12-05T08:54:17.802Z,5.92
2022-12-05T08:56:46.753Z,5.92
2022-12-05T09:03:01.984Z,5.93
2022-12-05T09:05:30.919Z,5.94
2022-12-05T09:08:00.103Z,5.97
2022-12-05T09:10:29.652Z,5.94
2022-12-05T09:16:01.196Z,5.89
2022-12-05T09:18:31.846Z,5.88
2022-12-05T09:21:00.463Z,5.87
2022-12-05T09:23:30.215Z,5.87
2022-12-05T09:26:07.996Z,5.81
2022-12-05T09:28:44.600Z,5.75
2022-12-05T09:31:15.554Z,5.73
2022-12-05T09:33:49.223Z,5.72
2022-12-05T09:36:21.449Z,5.71
2022-12-05T09:38:50.670Z,5.71
2022-12-05T09:41:46.071Z,5.73
2022-12-05T09:44:23.936Z,5.79
2022-12-05T09:46:57.827Z,5.83
2022-12-05T09:49:30.578Z,5.83
2022-12-05T09:52:00.498Z,5.83
2022-12-05T09:54:30.469Z,5.84
2022-12-05T09:56:59.955Z,5.91
2022-12-05T09:59:29.164Z,6.00
2022-12-05T10:02:07.688Z,6.20
2022-12-05T10:05:00.928Z,6.46
2022-12-05T10:07:41.067Z,6.73
2022-12-05T10:10:26.861Z,6.94
2022-12-05T10:13:10.481Z,6.91
2022-12-05T10:15:45.952Z,6.78
2022-12-05T10:18:31.567Z,6.69
2022-12-05T10:21:06.766Z,6.72
2022-12-05T10:24:00.056Z,6.93
2022-12-05T10:26:38.863Z,7.07
2022-12-05T10:29:20.446Z,7.13
2022-12-05T10:31:51.166Z,7.10
2022-12-05T10:34:31.357Z,7.07
2022-12-05T10:37:10.670Z,6.89
2022-12-05T10:39:40.021Z,6.78
2022-12-05T10:42:14.584Z,6.73
2022-12-05T10:44:43.893Z,6.73
2022-12-05T10:47:13.893Z,6.78
2022-12-05T10:49:44.591Z,6.80
2022-12-05T10:52:17.180Z,6.78
2022-12-05T10:54:51.059Z,6.76
2022-12-05T10:57:25.095Z,6.80
2022-12-05T10:59:55.126Z,6.83
2022-12-05T11:02:29.660Z,6.81
2022-12-05T11:04:59.939Z,6.85
2022-12-05T11:07:33.846Z,6.84
2022-12-05T11:10:05.032Z,6.75
2022-12-05T11:12:40.598Z,6.74
2022-12-05T11:15:25.493Z,6.71
2022-12-05T11:17:56.286Z,6.79
2022-12-05T11:20:42.878Z,6.87
2022-12-05T11:23:31.549Z,7.03
2022-12-05T11:26:00.772Z,7.04
2022-12-05T11:28:36.738Z,7.12
2022-12-05T11:31:12.777Z,7.03
2022-12-05T11:33:42.223Z,6.92
2022-12-05T11:36:19.735Z,6.85
2022-12-05T11:38:50.201Z,6.84
2022-12-05T11:41:45.625Z,6.84
2022-12-05T11:44:51.438Z,6.85
2022-12-05T11:47:31.740Z,6.89
2022-12-05T11:50:21.033Z,7.04
2022-12-05T11:53:05.095Z,7.18
2022-12-05T11:55:42.942Z,7.29
2022-12-05T11:58:39.907Z,7.29
2022-12-05T12:01:21.802Z,7.10
2022-12-05T12:04:19.599Z,6.97
2022-12-05T12:06:57.462Z,6.88
2022-12-05T12:10:28.436Z,6.81
2022-12-05T12:13:19.415Z,6.69
2022-12-05T12:16:11.909Z,6.66
2022-12-05T12:19:08.814Z,6.67
2022-12-05T12:21:52.161Z,6.69
2022-12-05T12:24:29.277Z,6.71
2022-12-05T12:27:07.280Z,6.65
2022-12-05T12:29:54.020Z,6.61
2022-12-05T12:32:34.095Z,6.55
2022-12-05T12:35:24.048Z,6.55
2022-12-05T12:38:10.058Z,6.54
2022-12-05T12:40:48.401Z,6.58
2022-12-05T12:43:54.377Z,6.58
2022-12-05T12:46:39.433Z,6.59
2022-12-05T12:49:29.031Z,6.57
2022-12-05T12:52:03.954Z,6.60
2022-12-05T12:55:07.287Z,6.66
2022-12-05T12:57:54.715Z,6.74
2022-12-05T13:00:39.491Z,6.71
2022-12-05T13:03:17.917Z,6.61
2022-12-05T13:05:51.165Z,6.57
2022-12-05T13:08:26.578Z,6.56
2022-12-05T13:10:56.118Z,6.57
2022-12-05T13:13:31.510Z,6.54
2022-12-05T13:16:03.428Z,6.52
2022-12-05T13:18:33.840Z,6.53
2022-12-05T13:21:05.231Z,6.53
2022-12-05T13:23:38.057Z,6.59
2022-12-05T13:26:12.661Z,6.68
2022-12-05T13:28:49.702Z,6.72
2022-12-05T13:31:19.749Z,6.74
2022-12-05T13:33:51.908Z,6.74
2022-12-05T13:36:40.024Z,6.69
2022-12-05T13:39:37.700Z,6.57
2022-12-05T13:42:15.788Z,6.51
2022-12-05T13:44:47.262Z,6.51
2022-12-05T13:48:40.717Z,6.52
2022-12-05T13:51:15.420Z,6.52
2022-12-05T13:53:48.700Z,6.60
2022-12-05T13:56:29.190Z,6.48
2022-12-05T13:58:59.394Z,6.46
2022-12-05T14:01:55.676Z,6.43
2022-12-05T14:04:48.435Z,6.42
2022-12-05T14:20:50.867Z,6.42
2022-12-05T14:23:46.087Z,6.46
2022-12-05T14:26:32.711Z,6.52
2022-12-05T14:29:17.461Z,6.60
2022-12-05T14:32:04.702Z,6.63
2022-12-05T14:34:39.525Z,6.57
2022-12-05T14:37:27.930Z,6.55
2022-12-05T14:39:59.860Z,6.53
2022-12-05T14:42:45.819Z,6.50
2022-12-05T14:45:37.923Z,6.48
2022-12-05T14:48:27.067Z,6.40
2022-12-05T14:50:56.820Z,6.37
2022-12-05T14:53:34.825Z,6.31
2022-12-05T14:56:18.264Z,6.17
2022-12-05T14:58:58.079Z,6.07
2022-12-05T15:01:37.957Z,6.08
2022-12-05T15:04:21.424Z,6.06
2022-12-05T15:06:54.311Z,6.07
2022-12-05T15:09:53.257Z,6.06
2022-12-05T15:12:27.886Z,6.09
2022-12-05T15:15:07.520Z,6.15
2022-12-05T15:17:45.426Z,6.17
2022-12-05T15:20:26.237Z,6.17
2022-12-05T15:22:56.483Z,6.15
2022-12-05T15:25:32.722Z,6.16
2022-12-05T15:28:05.891Z,6.10
2022-12-05T15:30:38.205Z,6.08
2022-12-05T15:33:13.756Z,5.98
2022-12-05T15:35:51.869Z,5.95
2022-12-05T15:38:29.994Z,5.94
2022-12-05T15:41:02.556Z,5.95
2022-12-05T15:43:33.541Z,5.94
2022-12-05T15:46:29.788Z,5.94
2022-12-05T15:49:01.552Z,5.97
2022-12-05T15:51:37.434Z,5.97
2022-12-05T15:54:13.116Z,5.97
2022-12-05T15:56:49.069Z,6.01
2022-12-05T15:59:29.475Z,6.05
2022-12-05T16:02:05.935Z,6.08
2022-12-05T16:04:40.078Z,6.08
2022-12-05T16:07:12.051Z,6.10
2022-12-05T16:09:45.051Z,6.11
2022-12-05T16:12:37.010Z,6.14
2022-12-05T16:15:13.826Z,6.17
2022-12-05T16:17:44.750Z,6.22
2022-12-05T16:20:23.477Z,6.23
2022-12-05T16:22:56.471Z,6.22
2022-12-05T16:25:29.116Z,6.26
2022-12-05T16:28:01.931Z,6.38
2022-12-05T16:30:32.027Z,6.40
2022-12-05T16:33:07.252Z,6.40
2022-12-05T16:35:39.370Z,6.36
2022-12-05T16:38:16.371Z,6.34
2022-12-05T16:40:55.929Z,6.29
2022-12-05T16:43:45.968Z,6.24
2022-12-05T16:46:43.282Z,6.22
2022-12-05T16:49:36.380Z,6.23
2022-12-05T16:52:14.940Z,6.25
2022-12-05T16:54:48.499Z,6.26
2022-12-05T16:57:18.896Z,6.29
2022-12-05T16:59:50.128Z,6.32
2022-12-05T17:02:25.437Z,6.34
2022-12-05T17:04:54.853Z,6.39
2022-12-05T17:07:24.281Z,6.40
2022-12-05T17:09:53.140Z,6.41
2022-12-05T17:12:25.799Z,6.44
2022-12-05T17:14:56.200Z,6.49
2022-12-05T17:17:29.083Z,6.51
2022-12-05T17:19:58.748Z,6.49
2022-12-05T17:22:28.531Z,6.52
2022-12-05T17:25:00.444Z,6.54
2022-12-05T17:27:29.429Z,6.58
2022-12-05T17:29:59.676Z,6.63
2022-12-05T17:32:28.512Z,6.63
2022-12-05T17:35:00.092Z,6.59
2022-12-05T17:37:31.407Z,6.53
2022-12-05T17:40:02.170Z,6.48
2022-12-05T17:42:31.968Z,6.41
2022-12-05T17:45:02.458Z,6.40
2022-12-05T17:47:31.118Z,6.42
2022-12-05T17:50:00.226Z,6.40
2022-12-05T17:52:30.646Z,6.39
2022-12-05T17:55:00.614Z,6.41
2022-12-05T17:57:29.615Z,6.36
2022-12-05T17:59:58.369Z,6.36
2022-12-05T18:02:28.559Z,6.39
2022-12-05T18:04:58.855Z,6.42
2022-12-05T18:07:28.779Z,6.44
2022-12-05T18:09:57.548Z,6.48
2022-12-05T18:12:26.392Z,6.50
2022-12-05T18:14:58.139Z,6.59
2022-12-05T18:17:31.035Z,6.65
2022-12-05T18:20:00.988Z,6.54
2022-12-05T18:22:30.310Z,6.45
2022-12-05T18:25:01.055Z,6.36
2022-12-05T18:27:30.050Z,6.29
2022-12-05T18:29:59.959Z,6.24
2022-12-05T18:32:30.248Z,6.22
2022-12-05T18:35:02.414Z,6.22
2022-12-05T18:37:31.646Z,6.21
2022-12-05T18:40:00.625Z,6.20
2022-12-05T18:42:29.860Z,6.21
2022-12-05T18:44:58.895Z,6.23
2022-12-05T18:47:28.145Z,6.30
2022-12-05T18:49:59.408Z,6.35
2022-12-05T18:52:30.180Z,6.37
2022-12-05T18:55:16.299Z,6.38
2022-12-05T18:57:48.108Z,6.36
2022-12-05T19:00:18.031Z,6.37
2022-12-05T19:02:49.757Z,6.31
2022-12-05T19:05:20.911Z,6.24
2022-12-05T19:07:49.784Z,6.20
2022-12-05T19:10:18.438Z,6.17
2022-12-05T19:12:48.463Z,6.18
2022-12-05T19:15:17.361Z,6.17
2022-12-05T19:17:46.141Z,6.16
2022-12-05T19:20:15.720Z,6.20
2022-12-05T19:22:45.858Z,6.23
2022-12-05T19:25:14.418Z,6.23
2022-12-05T19:27:42.961Z,6.25
2022-12-05T19:30:12.233Z,6.23
2022-12-05T19:32:41.341Z,6.26
2022-12-05T19:35:11.141Z,6.25
2022-12-05T19:37:39.684Z,6.29
2022-12-05T19:40:10.989Z,6.32
2022-12-05T19:42:39.498Z,6.33
2022-12-05T19:45:12.258Z,6.33
2022-12-05T19:47:43.630Z,6.28
2022-12-05T19:50:12.301Z,6.30
2022-12-05T19:52:40.914Z,6.22
2022-12-05T19:55:11.898Z,6.14
2022-12-05T19:57:40.512Z,6.14
2022-12-05T20:00:10.328Z,6.14
2022-12-05T20:02:40.461Z,6.15
2022-12-05T20:05:10.188Z,6.24
2022-12-05T20:07:39.036Z,6.29
2022-12-05T20:10:08.438Z,6.26
2022-12-05T20:12:38.896Z,6.24
2022-12-05T20:15:08.781Z,6.22
2022-12-05T20:17:37.535Z,6.20
2022-12-05T20:20:07.589Z,6.18
2022-12-05T20:22:37.070Z,6.17
2022-12-05T20:25:06.888Z,6.19
2022-12-05T20:27:38.270Z,6.21
2022-12-05T20:30:09.019Z,6.21
2022-12-05T20:32:37.798Z,6.20
2022-12-05T20:35:08.349Z,6.19
2022-12-05T20:37:36.968Z,6.17
2022-12-05T20:40:06.280Z,6.13
2022-12-05T20:42:34.680Z,6.09
2022-12-05T20:45:05.321Z,6.03
2022-12-05T20:47:34.272Z,6.01
2022-12-05T20:50:02.978Z,6.01
2022-12-05T20:52:32.550Z,5.97
2022-12-05T20:55:01.289Z,5.93
2022-12-05T20:57:31.016Z,5.94
2022-12-05T21:00:00.622Z,5.92
2022-12-05T21:02:31.121Z,5.90
2022-12-05T21:04:59.778Z,5.90
2022-12-05T21:07:29.595Z,5.89
2022-12-05T21:10:06.424Z,5.88
2022-12-05T21:12:36.843Z,5.82
2022-12-05T21:15:06.020Z,5.83
2022-12-05T21:17:36.163Z,5.84
2022-12-05T21:20:05.696Z,5.85
2022-12-05T21:22:35.528Z,5.87
2022-12-05T21:25:05.660Z,5.88
2022-12-05T21:27:34.591Z,5.92
2022-12-05T21:30:03.248Z,5.93
2022-12-05T21:32:32.519Z,5.96
2022-12-05T21:35:03.882Z,5.94
2022-12-05T21:37:32.738Z,5.93
2022-12-05T21:40:02.489Z,5.95
2022-12-05T21:42:31.407Z,5.93
2022-12-05T21:45:00.228Z,5.91
2022-12-05T21:47:30.928Z,5.90
2022-12-05T21:49:59.846Z,5.89
2022-12-05T21:52:30.482Z,5.85
2022-12-05T21:54:59.138Z,5.86
2022-12-05T21:57:32.519Z,5.86
2022-12-05T22:00:01.728Z,5.86
2022-12-05T22:02:30.427Z,5.84
2022-12-05T22:05:01.432Z,5.84
2022-12-05T22:07:31.605Z,5.82
2022-12-05T22:10:00.430Z,5.80
2022-12-05T22:12:30.104Z,5.80
2022-12-05T22:14:58.885Z,5.77
2022-12-05T22:17:27.533Z,5.77
2022-12-05T22:19:57.632Z,5.75
2022-12-05T22:22:34.061Z,5.77
2022-12-05T22:25:04.536Z,5.76
2022-12-05T22:27:33.292Z,5.78
2022-12-05T22:30:02.753Z,5.79
2022-12-05T22:32:31.569Z,5.78
2022-12-05T22:35:03.679Z,5.73
2022-12-05T22:37:34.066Z,5.72
2022-12-05T22:40:04.218Z,5.71
2022-12-05T22:42:32.916Z,5.71
2022-12-05T22:45:06.197Z,5.67
2022-12-05T22:47:35.552Z,5.67
2022-12-05T22:50:05.678Z,5.68
2022-12-05T22:52:34.237Z,5.68
2022-12-05T22:55:04.838Z,5.68
2022-12-05T22:57:34.246Z,5.66
2022-12-05T23:00:02.927Z,5.63
2022-12-05T23:02:31.734Z,5.60
2022-12-05T23:05:00.578Z,5.64
2022-12-05T23:07:29.973Z,5.67
2022-12-05T23:09:58.870Z,5.68
2022-12-05T23:12:29.247Z,5.68
2022-12-05T23:14:58.277Z,5.69
2022-12-05T23:17:27.077Z,5.69
2022-12-05T23:19:55.770Z,5.68
2022-12-05T23:22:24.944Z,5.70
2022-12-05T23:24:53.767Z,5.71
2022-12-05T23:27:22.578Z,5.69
2022-12-05T23:29:52.845Z,5.68
2022-12-05T23:32:21.848Z,5.70
2022-12-05T23:34:50.586Z,5.68
2022-12-05T23:37:19.616Z,5.63
2022-12-05T23:39:48.388Z,5.57
2022-12-05T23:42:17.150Z,5.55
2022-12-05T23:44:46.606Z,5.52
2022-12-05T23:47:16.811Z,5.53
2022-12-05T23:49:46.860Z,5.53
2022-12-05T23:52:16.337Z,5.55
2022-12-05T23:54:45.473Z,5.58
2022-12-05T23:57:17.502Z,5.58
2022-12-05T23:59:46.977Z,5.59
